createdAt,value
2023-02-15T00:00:11.732Z,24.50
2023-02-15T00:02:40.387Z,22.80
2023-02-15T00:05:09.960Z,26.07
2023-02-15T00:07:38.365Z,25.90
2023-02-15T00:10:08.354Z,24.97
2023-02-15T00:12:36.832Z,23.00
2023-02-15T00:15:05.587Z,22.67
2023-02-15T00:17:35.348Z,23.47
2023-02-15T00:20:03.761Z,22.87
2023-02-15T00:22:32.113Z,22.47
2023-02-15T00:25:00.418Z,22.03
2023-02-15T00:27:28.760Z,22.03
2023-02-15T00:29:57.087Z,21.13
2023-02-15T00:32:25.441Z,21.97
2023-02-15T00:34:55.153Z,21.53
2023-02-15T00:37:23.472Z,21.70
2023-02-15T00:39:51.775Z,20.87
2023-02-15T00:42:20.110Z,21.30
2023-02-15T00:44:48.426Z,22.63
2023-02-15T00:47:16.749Z,22.27
2023-02-15T00:49:45.083Z,21.27
2023-02-15T00:52:14.836Z,21.23
2023-02-15T00:54:43.141Z,21.13
2023-02-15T00:57:11.610Z,23.47
2023-02-15T00:59:39.926Z,22.77
2023-02-15T01:02:08.319Z,21.40
2023-02-15T01:04:36.993Z,21.90
2023-02-15T01:07:05.400Z,23.40
2023-02-15T01:09:35.125Z,21.07
2023-02-15T01:12:03.583Z,21.43
2023-02-15T01:14:31.927Z,23.03
2023-02-15T01:17:00.256Z,22.27
2023-02-15T01:19:28.644Z,20.93
2023-02-15T01:21:56.944Z,21.50
2023-02-15T01:24:25.277Z,23.17
2023-02-15T01:26:54.998Z,21.23
2023-02-15T01:29:23.468Z,22.17
2023-02-15T01:31:51.822Z,20.40
2023-02-15T01:34:20.216Z,21.10
2023-02-15T01:36:48.488Z,22.20
2023-02-15T01:39:16.807Z,21.13
2023-02-15T01:41:45.108Z,21.40
2023-02-15T01:44:53.601Z,20.07
2023-02-15T01:50:05.598Z,20.07
2023-02-15T01:52:34.982Z,20.43
2023-02-15T01:55:03.646Z,21.73
2023-02-15T01:57:32.115Z,19.33
2023-02-15T02:00:04.546Z,19.77
2023-02-15T02:02:33.798Z,20.37
2023-02-15T02:05:07.419Z,20.57
2023-02-15T02:07:39.201Z,18.90
2023-02-15T02:10:10.825Z,19.03
2023-02-15T02:12:40.996Z,19.43
2023-02-15T02:15:11.540Z,18.83
2023-02-15T02:17:50.429Z,17.80
2023-02-15T02:20:36.909Z,19.27
2023-02-15T02:23:25.456Z,19.00
2023-02-15T02:26:28.309Z,19.57
2023-02-15T02:29:38.320Z,18.53
2023-02-15T02:32:34.326Z,19.77
2023-02-15T02:35:10.661Z,19.50
2023-02-15T02:37:50.453Z,20.40
2023-02-15T02:40:25.142Z,20.03
2023-02-15T02:43:01.831Z,19.90
2023-02-15T02:45:38.213Z,20.17
2023-02-15T02:48:10.591Z,20.33
2023-02-15T02:50:42.226Z,19.40
2023-02-15T02:53:12.211Z,19.70
2023-02-15T02:55:46.330Z,19.33
2023-02-15T02:58:19.418Z,20.13
2023-02-15T03:00:53.947Z,19.10
2023-02-15T03:03:26.911Z,19.03
2023-02-15T03:06:00.208Z,18.97
2023-02-15T03:08:32.708Z,19.80
2023-02-15T03:11:04.038Z,20.73
2023-02-15T03:13:33.276Z,19.87
2023-02-15T03:16:21.140Z,17.87
2023-02-15T03:18:59.050Z,20.10
2023-02-15T03:21:35.976Z,20.27
2023-02-15T03:24:10.662Z,19.80
2023-02-15T03:26:40.997Z,19.27
2023-02-15T03:29:10.403Z,19.53
2023-02-15T03:31:44.814Z,19.67
2023-02-15T03:34:17.047Z,18.67
2023-02-15T03:36:54.349Z,19.03
2023-02-15T03:39:28.129Z,19.40
2023-02-15T03:42:01.055Z,20.07
2023-02-15T03:44:32.271Z,20.23
2023-02-15T03:47:06.304Z,19.63
2023-02-15T03:49:44.442Z,18.63
2023-02-15T03:52:16.479Z,19.47
2023-02-15T03:54:46.959Z,20.37
2023-02-15T03:57:36.162Z,19.23
2023-02-15T04:00:25.486Z,19.23
2023-02-15T04:03:19.770Z,20.23
2023-02-15T04:05:48.148Z,19.57
2023-02-15T04:08:18.007Z,24.33
2023-02-15T04:10:54.541Z,20.50
2023-02-15T04:13:23.641Z,19.33
2023-02-15T04:16:07.340Z,19.57
2023-02-15T04:18:55.698Z,21.85
2023-02-15T04:21:43.039Z,19.63
2023-02-15T04:24:31.224Z,19.20
2023-02-15T04:27:00.049Z,20.63
2023-02-15T04:29:29.670Z,19.13
2023-02-15T04:31:59.652Z,19.47
2023-02-15T04:34:28.369Z,20.43
2023-02-15T04:36:56.728Z,17.97
2023-02-15T04:39:26.494Z,20.77
2023-02-15T04:41:56.021Z,20.37
2023-02-15T04:44:24.686Z,21.47
2023-02-15T04:46:53.225Z,21.83
2023-02-15T04:49:21.560Z,22.10
2023-02-15T04:51:49.933Z,20.00
2023-02-15T04:54:18.328Z,20.47
2023-02-15T04:56:48.073Z,20.83
2023-02-15T04:59:16.550Z,20.77
2023-02-15T05:01:44.971Z,22.63
2023-02-15T05:04:13.647Z,23.43
2023-02-15T05:06:42.009Z,22.17
2023-02-15T05:09:10.508Z,22.53
2023-02-15T05:11:38.850Z,22.73
2023-02-15T05:14:08.784Z,23.23
2023-02-15T05:16:37.183Z,23.03
2023-02-15T05:19:05.805Z,23.30
2023-02-15T05:21:34.417Z,24.27
2023-02-15T05:24:22.796Z,24.53
2023-02-15T05:27:08.834Z,24.10
2023-02-15T05:29:38.702Z,23.70
2023-02-15T05:32:07.364Z,22.77
2023-02-15T05:34:35.799Z,23.83
2023-02-15T05:37:06.838Z,23.43
2023-02-15T05:39:35.141Z,23.50
2023-02-15T05:42:03.552Z,24.73
2023-02-15T05:44:31.974Z,26.40
2023-02-15T05:47:03.933Z,24.93
2023-02-15T05:49:32.489Z,26.03
2023-02-15T05:52:00.809Z,25.00
2023-02-15T05:54:29.824Z,27.20
2023-02-15T05:56:58.179Z,26.17
2023-02-15T05:59:26.489Z,26.50
2023-02-15T06:01:54.847Z,26.95
2023-02-15T06:04:25.092Z,26.73
2023-02-15T06:06:53.413Z,26.83
2023-02-15T06:09:21.736Z,26.43
2023-02-15T06:11:50.131Z,23.77
2023-02-15T06:14:18.787Z,27.10
2023-02-15T06:16:47.269Z,26.53
2023-02-15T06:19:15.665Z,26.57
2023-02-15T06:21:45.707Z,27.03
2023-02-15T06:24:14.251Z,26.27
2023-02-15T06:26:42.578Z,24.47
2023-02-15T06:29:11.627Z,26.17
2023-02-15T06:31:40.241Z,25.77
2023-02-15T06:34:08.873Z,27.17
2023-02-15T06:36:37.783Z,26.00
2023-02-15T06:39:07.679Z,25.47
2023-02-15T06:41:36.064Z,25.83
2023-02-15T06:44:04.463Z,27.23
2023-02-15T06:46:32.715Z,26.10
2023-02-15T06:49:01.204Z,27.07
2023-02-15T06:51:29.595Z,25.83
2023-02-15T06:53:57.879Z,27.50
2023-02-15T06:56:27.659Z,27.27
2023-02-15T06:58:55.983Z,27.57
2023-02-15T07:01:24.308Z,27.07
2023-02-15T07:03:52.692Z,25.00
2023-02-15T07:06:21.110Z,25.50
2023-02-15T07:08:49.510Z,25.37
2023-02-15T07:11:35.252Z,23.60
2023-02-15T07:14:05.033Z,25.13
2023-02-15T07:16:33.442Z,22.53
2023-02-15T07:19:01.890Z,24.20
2023-02-15T07:21:30.268Z,25.40
2023-02-15T07:23:59.619Z,24.00
2023-02-15T07:26:28.349Z,24.47
2023-02-15T07:28:56.673Z,24.03
2023-02-15T07:31:26.357Z,22.93
2023-02-15T07:33:54.673Z,22.43
2023-02-15T07:36:23.043Z,26.07
2023-02-15T07:38:51.309Z,25.40
2023-02-15T07:41:19.747Z,25.53
2023-02-15T07:43:48.208Z,24.60
2023-02-15T07:46:18.944Z,25.47
2023-02-15T07:48:49.015Z,25.60
2023-02-15T07:51:17.543Z,28.63
2023-02-15T07:53:45.935Z,27.93
2023-02-15T07:56:15.655Z,24.50
2023-02-15T07:58:52.930Z,24.17
2023-02-15T08:01:22.813Z,24.93
2023-02-15T08:03:53.054Z,23.37
2023-02-15T08:06:21.863Z,23.37
2023-02-15T08:08:50.184Z,23.20
2023-02-15T08:11:29.788Z,18.97
2023-02-15T08:14:00.547Z,19.70
2023-02-15T08:16:32.294Z,20.50
2023-02-15T08:19:04.659Z,20.03
2023-02-15T08:21:34.153Z,21.00
2023-02-15T08:24:03.280Z,18.87
2023-02-15T08:26:32.565Z,20.37
2023-02-15T08:29:01.645Z,19.07
2023-02-15T08:31:30.795Z,19.87
2023-02-15T08:33:59.671Z,20.73
2023-02-15T08:36:30.953Z,20.33
2023-02-15T08:39:00.733Z,20.10
2023-02-15T08:41:31.473Z,20.07
2023-02-15T08:44:00.966Z,18.23
2023-02-15T08:46:31.608Z,17.60
2023-02-15T08:49:00.624Z,18.87
2023-02-15T08:51:31.881Z,16.67
2023-02-15T08:54:01.796Z,17.07
2023-02-15T08:56:32.820Z,15.43
2023-02-15T08:59:01.246Z,15.77
2023-02-15T09:01:31.329Z,13.23
2023-02-15T09:04:01.458Z,12.73
2023-02-15T09:06:31.876Z,13.30
2023-02-15T09:09:00.322Z,13.03
2023-02-15T09:11:31.202Z,12.47
2023-02-15T09:14:00.920Z,12.77
2023-02-15T09:16:31.057Z,13.20
2023-02-15T09:18:59.881Z,13.03
2023-02-15T09:21:30.620Z,12.37
2023-02-15T09:24:06.764Z,11.97
2023-02-15T09:26:37.452Z,14.27
2023-02-15T09:29:06.364Z,11.77
2023-02-15T09:31:36.614Z,10.97
2023-02-15T09:34:05.066Z,9.60
2023-02-15T09:36:36.581Z,9.43
2023-02-15T09:39:10.278Z,9.23
2023-02-15T09:42:01.223Z,9.87
2023-02-15T09:44:38.451Z,10.17
2023-02-15T09:47:36.584Z,9.03
2023-02-15T09:50:12.340Z,7.50
2023-02-15T09:53:06.379Z,8.33
2023-02-15T09:55:51.152Z,7.87
2023-02-15T09:58:27.190Z,8.50
2023-02-15T10:01:03.216Z,7.63
2023-02-15T10:03:56.621Z,9.70
2023-02-15T10:06:42.776Z,7.30
2023-02-15T10:09:29.784Z,8.13
2023-02-15T10:12:15.062Z,9.07
2023-02-15T10:15:14.682Z,7.57
2023-02-15T10:17:56.878Z,8.40
2023-02-15T10:20:32.383Z,8.10
2023-02-15T10:23:16.234Z,7.10
2023-02-15T10:25:51.988Z,6.53
2023-02-15T10:28:22.418Z,6.20
2023-02-15T10:30:53.068Z,5.97
2023-02-15T10:33:40.389Z,6.67
2023-02-15T10:36:21.312Z,6.90
2023-02-15T10:38:56.193Z,7.57
2023-02-15T10:41:38.323Z,8.00
2023-02-15T10:44:24.469Z,7.90
2023-02-15T10:47:12.536Z,6.83
2023-02-15T10:49:55.692Z,6.20
2023-02-15T10:52:33.035Z,6.43
2023-02-15T10:55:11.020Z,6.27
2023-02-15T10:57:51.848Z,6.00
2023-02-15T11:00:27.069Z,6.00
2023-02-15T11:03:26.459Z,6.40
2023-02-15T11:06:04.758Z,5.90
2023-02-15T11:08:38.168Z,7.13
2023-02-15T11:11:10.101Z,7.23
2023-02-15T11:13:43.721Z,6.80
2023-02-15T11:16:18.865Z,7.83
2023-02-15T11:18:52.509Z,7.53
2023-02-15T11:21:24.652Z,8.63
2023-02-15T11:23:55.108Z,7.00
2023-02-15T11:26:30.756Z,7.53
2023-02-15T11:29:04.058Z,7.17
2023-02-15T11:31:44.430Z,5.87
2023-02-15T11:34:20.170Z,7.20
2023-02-15T11:36:51.230Z,6.13
2023-02-15T11:39:22.088Z,5.80
2023-02-15T11:41:55.377Z,6.47
2023-02-15T11:44:32.789Z,6.00
2023-02-15T11:47:02.718Z,5.83
2023-02-15T11:49:34.238Z,5.87
2023-02-15T11:52:05.271Z,5.50
2023-02-15T11:54:39.866Z,5.13
2023-02-15T11:57:16.758Z,5.87
2023-02-15T11:59:55.665Z,5.23
2023-02-15T12:02:27.642Z,5.97
2023-02-15T12:05:00.314Z,6.30
2023-02-15T12:07:31.621Z,5.90
2023-02-15T12:10:08.177Z,6.10
2023-02-15T12:12:37.662Z,5.73
2023-02-15T12:15:14.304Z,5.83
2023-02-15T12:17:51.501Z,6.67
2023-02-15T12:20:31.575Z,5.57
2023-02-15T12:23:04.340Z,6.67
2023-02-15T12:25:38.557Z,6.30
2023-02-15T12:28:18.239Z,6.90
2023-02-15T12:30:49.068Z,6.13
2023-02-15T12:33:25.665Z,6.47
2023-02-15T12:36:01.611Z,6.53
2023-02-15T12:38:31.068Z,6.57
2023-02-15T12:41:02.640Z,7.20
2023-02-15T12:43:35.719Z,6.73
2023-02-15T12:46:24.513Z,7.67
2023-02-15T12:49:09.958Z,6.97
2023-02-15T12:51:49.831Z,7.27
2023-02-15T12:54:41.154Z,7.00
2023-02-15T12:57:26.922Z,6.33
2023-02-15T12:59:58.336Z,6.07
2023-02-15T13:02:32.362Z,5.93
2023-02-15T13:05:10.184Z,6.07
2023-02-15T13:07:40.017Z,5.97
2023-02-15T13:10:23.910Z,5.83
2023-02-15T13:12:55.160Z,5.07
2023-02-15T13:15:36.686Z,5.90
2023-02-15T13:18:12.671Z,5.63
2023-02-15T13:20:42.753Z,6.10
2023-02-15T13:23:30.185Z,6.53
2023-02-15T13:26:01.184Z,5.03
2023-02-15T13:28:40.395Z,6.33
2023-02-15T13:31:16.796Z,6.30
2023-02-15T13:34:32.158Z,5.88
2023-02-15T13:37:06.168Z,5.88
2023-02-15T13:39:51.785Z,6.43
2023-02-15T13:42:38.150Z,6.57
2023-02-15T13:45:45.610Z,6.78
2023-02-15T13:48:23.087Z,6.10
2023-02-15T13:51:10.044Z,5.93
2023-02-15T13:54:04.344Z,6.53
2023-02-15T13:56:43.108Z,6.40
2023-02-15T13:59:34.482Z,6.40
2023-02-15T14:02:29.612Z,5.40
2023-02-15T14:05:16.876Z,5.75
2023-02-15T14:07:58.078Z,5.25
2023-02-15T14:10:47.186Z,5.13
2023-02-15T14:13:52.652Z,5.90
2023-02-15T14:16:34.553Z,5.80
2023-02-15T14:19:16.205Z,5.55
2023-02-15T14:21:50.597Z,5.75
2023-02-15T14:24:30.606Z,5.15
2023-02-15T14:27:11.257Z,5.30
2023-02-15T14:29:49.975Z,4.47
2023-02-15T14:32:26.360Z,4.30
2023-02-15T14:34:57.005Z,5.55
2023-02-15T14:37:41.186Z,4.93
2023-02-15T14:40:38.620Z,4.43
2023-02-15T14:43:13.895Z,5.15
2023-02-15T14:45:49.667Z,4.50
2023-02-15T14:48:23.985Z,3.85
2023-02-15T14:50:52.417Z,4.35
2023-02-15T14:53:43.161Z,4.13
2023-02-15T14:56:23.827Z,3.17
2023-02-15T14:59:16.296Z,3.90
2023-02-15T15:01:54.879Z,3.90
2023-02-15T15:04:30.877Z,3.83
2023-02-15T15:07:16.366Z,4.40
2023-02-15T15:09:47.746Z,3.53
2023-02-15T15:12:39.303Z,2.93
2023-02-15T15:15:08.742Z,3.53
2023-02-15T15:18:01.754Z,3.70
2023-02-15T15:20:51.643Z,3.53
2023-02-15T15:23:51.168Z,4.07
2023-02-15T15:26:28.728Z,4.63
2023-02-15T15:29:02.998Z,4.00
2023-02-15T15:31:47.895Z,4.30
2023-02-15T15:34:38.194Z,4.30
2023-02-15T15:37:38.788Z,5.30
2023-02-15T15:40:28.849Z,5.20
2023-02-15T15:43:21.378Z,4.60
2023-02-15T15:46:04.636Z,4.70
2023-02-15T15:48:35.978Z,5.33
2023-02-15T15:51:08.334Z,4.70
2023-02-15T15:53:43.349Z,4.97
2023-02-15T15:56:17.575Z,5.63
2023-02-15T15:58:48.838Z,7.40
2023-02-15T16:01:18.917Z,8.07
2023-02-15T16:03:54.459Z,6.53
2023-02-15T16:06:31.280Z,7.63
2023-02-15T16:08:59.925Z,6.77
2023-02-15T16:11:31.483Z,8.07
2023-02-15T16:13:59.837Z,6.77
2023-02-15T16:16:33.669Z,6.53
2023-02-15T16:19:02.309Z,6.83
2023-02-15T16:21:34.226Z,7.17
2023-02-15T16:24:20.006Z,6.93
2023-02-15T16:27:21.304Z,7.80
2023-02-15T16:29:49.615Z,7.27
2023-02-15T16:32:23.263Z,7.57
2023-02-15T16:34:56.212Z,7.17
2023-02-15T16:37:27.951Z,6.87
2023-02-15T16:39:57.246Z,7.50
2023-02-15T16:42:26.472Z,9.60
2023-02-15T16:44:58.723Z,10.63
2023-02-15T16:47:33.453Z,9.20
2023-02-15T16:50:05.122Z,8.67
2023-02-15T16:52:34.015Z,8.47
2023-02-15T16:55:05.184Z,7.73
2023-02-15T16:57:36.994Z,8.50
2023-02-15T17:00:09.209Z,9.40
2023-02-15T17:02:55.487Z,9.87
2023-02-15T17:06:06.999Z,8.33
2023-02-15T17:08:49.170Z,8.70
2023-02-15T17:11:21.068Z,9.90
2023-02-15T17:14:16.801Z,9.80
2023-02-15T17:16:50.265Z,11.50
2023-02-15T17:19:26.048Z,9.93
2023-02-15T17:21:57.420Z,12.23
2023-02-15T17:24:39.105Z,12.40
2023-02-15T17:27:14.598Z,12.03
2023-02-15T17:29:46.071Z,12.90
2023-02-15T17:32:20.071Z,12.67
2023-02-15T17:35:09.397Z,13.80
2023-02-15T17:37:49.457Z,13.30
2023-02-15T17:40:24.943Z,13.23
2023-02-15T17:42:54.110Z,13.07
2023-02-15T17:45:23.999Z,13.47
2023-02-15T17:47:53.206Z,14.67
2023-02-15T17:50:25.982Z,12.77
2023-02-15T17:52:55.958Z,14.83
2023-02-15T17:55:39.336Z,14.83
2023-02-15T17:58:10.115Z,16.27
2023-02-15T18:01:02.208Z,14.57
2023-02-15T18:03:59.602Z,16.07
2023-02-15T18:06:47.212Z,17.00
2023-02-15T18:09:36.218Z,15.67
2023-02-15T18:12:15.203Z,14.53
2023-02-15T18:14:43.994Z,14.37
2023-02-15T18:17:14.893Z,15.93
2023-02-15T18:19:48.198Z,15.50
2023-02-15T18:22:22.387Z,15.37
2023-02-15T18:24:51.324Z,15.43
2023-02-15T18:27:21.569Z,16.00
2023-02-15T18:29:50.641Z,16.53
2023-02-15T18:32:29.257Z,15.00
2023-02-15T18:34:59.470Z,15.93
2023-02-15T18:37:33.468Z,21.83
2023-02-15T18:40:07.132Z,19.00
2023-02-15T18:42:36.748Z,17.20
2023-02-15T18:45:16.619Z,19.43
2023-02-15T18:47:45.503Z,20.33
2023-02-15T18:50:14.161Z,21.10
2023-02-15T18:52:47.114Z,20.87
2023-02-15T18:55:19.852Z,30.77
2023-02-15T18:57:54.801Z,33.83
2023-02-15T19:00:25.819Z,30.43
2023-02-15T19:02:54.596Z,32.67
2023-02-15T19:05:25.368Z,32.80
2023-02-15T19:07:55.753Z,33.37
2023-02-15T19:10:26.469Z,35.50
2023-02-15T19:12:55.989Z,33.10
2023-02-15T19:15:26.120Z,34.33
2023-02-15T19:17:55.452Z,40.93
2023-02-15T19:20:25.914Z,37.83
2023-02-15T19:22:58.136Z,39.70
2023-02-15T19:25:28.427Z,39.13
2023-02-15T19:27:58.425Z,37.67
2023-02-15T19:30:34.103Z,41.60
2023-02-15T19:33:02.841Z,35.70
2023-02-15T19:35:34.634Z,39.47
2023-02-15T19:38:08.973Z,37.57
2023-02-15T19:40:39.540Z,38.53
2023-02-15T19:43:11.826Z,42.23
2023-02-15T19:45:40.267Z,39.47
2023-02-15T19:48:08.778Z,42.20
2023-02-15T19:50:37.195Z,47.10
2023-02-15T19:53:07.016Z,49.03
2023-02-15T19:55:38.052Z,47.73
2023-02-15T19:58:13.851Z,46.53
2023-02-15T20:00:42.238Z,49.63
2023-02-15T20:03:10.568Z,47.97
2023-02-15T20:05:39.671Z,45.63
2023-02-15T20:08:16.217Z,44.90
2023-02-15T20:10:45.575Z,46.73
2023-02-15T20:13:16.718Z,45.07
2023-02-15T20:15:45.944Z,47.53
2023-02-15T20:18:14.772Z,46.53
2023-02-15T20:20:45.740Z,51.67
2023-02-15T20:23:30.447Z,58.47
2023-02-15T20:26:00.842Z,56.93
2023-02-15T20:28:32.443Z,56.97
2023-02-15T20:31:01.018Z,53.30
2023-02-15T20:33:29.791Z,55.60
2023-02-15T20:35:59.332Z,55.37
2023-02-15T20:38:32.229Z,55.20
2023-02-15T20:41:19.761Z,51.93
2023-02-15T20:43:48.722Z,53.40
2023-02-15T20:46:17.064Z,52.80
2023-02-15T20:48:45.451Z,50.97
2023-02-15T20:51:18.445Z,46.17
2023-02-15T20:53:50.057Z,43.63
2023-02-15T20:56:21.736Z,44.40
2023-02-15T20:58:50.559Z,45.30
2023-02-15T21:01:20.972Z,43.27
2023-02-15T21:03:49.763Z,41.30
2023-02-15T21:06:18.618Z,42.93
2023-02-15T21:08:48.414Z,42.67
2023-02-15T21:11:21.109Z,43.13
2023-02-15T21:13:51.142Z,42.37
2023-02-15T21:16:19.875Z,41.57
2023-02-15T21:18:48.273Z,41.67
2023-02-15T21:21:23.727Z,40.53
2023-02-15T21:23:54.238Z,42.27
2023-02-15T21:26:24.041Z,39.50
2023-02-15T21:28:52.418Z,39.50
2023-02-15T21:31:22.790Z,39.50
2023-02-15T21:33:51.311Z,38.27
2023-02-15T21:36:22.404Z,36.97
2023-02-15T21:38:53.768Z,36.00
2023-02-15T21:41:41.214Z,40.50
2023-02-15T21:44:34.612Z,36.47
2023-02-15T21:47:20.350Z,34.03
2023-02-15T21:49:48.684Z,36.17
2023-02-15T21:52:20.619Z,37.43
2023-02-15T21:54:55.156Z,37.40
2023-02-15T21:57:23.488Z,36.23
2023-02-15T21:59:51.840Z,38.00
2023-02-15T22:02:28.662Z,36.23
2023-02-15T22:04:57.568Z,35.53
2023-02-15T22:07:25.996Z,36.70
2023-02-15T22:09:55.775Z,35.90
2023-02-15T22:12:24.214Z,35.27
2023-02-15T22:14:54.639Z,36.00
2023-02-15T22:17:25.084Z,27.57
2023-02-15T22:19:53.758Z,31.93
2023-02-15T22:22:22.094Z,29.23
2023-02-15T22:24:50.786Z,29.90
2023-02-15T22:27:23.333Z,25.50
2023-02-15T22:29:52.562Z,25.03
2023-02-15T22:32:22.537Z,24.87
2023-02-15T22:34:53.286Z,24.80
2023-02-15T22:37:22.350Z,21.43
2023-02-15T22:39:50.687Z,22.00
2023-02-15T22:42:25.749Z,21.83
2023-02-15T22:44:55.645Z,21.97
2023-02-15T22:47:26.056Z,20.33
2023-02-15T22:49:54.630Z,17.33
2023-02-15T22:52:23.378Z,19.00
2023-02-15T22:54:51.690Z,17.27
2023-02-15T22:57:29.350Z,16.80
2023-02-15T22:59:57.946Z,17.43
2023-02-15T23:02:26.647Z,16.47
2023-02-15T23:04:55.015Z,18.40
2023-02-15T23:07:23.486Z,18.57
2023-02-15T23:09:52.343Z,16.87
2023-02-15T23:12:27.388Z,17.70
2023-02-15T23:15:03.233Z,16.00
2023-02-15T23:17:31.577Z,16.83
2023-02-15T23:19:59.955Z,16.37
2023-02-15T23:22:28.244Z,17.33
2023-02-15T23:24:56.667Z,16.30
2023-02-15T23:27:44.001Z,16.57
2023-02-15T23:30:15.592Z,16.63
2023-02-15T23:32:43.949Z,16.90
2023-02-15T23:35:15.974Z,19.10
2023-02-15T23:37:44.749Z,18.20
2023-02-15T23:40:35.473Z,18.23
2023-02-15T23:43:05.822Z,16.80
2023-02-15T23:45:37.978Z,18.37
2023-02-15T23:48:33.467Z,18.77
2023-02-15T23:51:02.259Z,19.03
2023-02-15T23:53:31.388Z,18.33
2023-02-15T23:56:00.285Z,18.67
2023-02-15T23:58:37.462Z,19.90
